Time;durP1;ratioP1;P1;durP2;ratioP2;P2;SDS_P1;SDS_P2;PMS_P1;PMS_P2;Temp;Humidity;BMP_temperature;BMP_pressure;BME280_temperature;BME280_humidity;BME280_pressure;Samples;Min_cycle;Max_cycle;Signal;HPM_P1;HPM_P2
2023/06/09 00:00:49;;;;;;;5.57;5.07;;;;;;;15.87;100.00;96204.59;5032361;28;20270;-58
2023/06/09 00:03:21;;;;;;;5.55;5.15;;;;;;;15.85;100.00;96211.94;5033166;28;20220;-57
2023/06/09 00:05:47;;;;;;;5.28;4.88;;;;;;;15.88;100.00;96200.91;5023555;28;20203;-57
2023/06/09 00:08:15;;;;;;;5.15;4.75;;;;;;;15.87;100.00;96201.91;5044698;28;20583;-58
2023/06/09 00:10:41;;;;;;;4.78;4.38;;;;;;;15.83;100.00;96203.31;5033215;28;20221;-57
2023/06/09 00:13:09;;;;;;;5.33;4.90;;;;;;;15.79;100.00;96195.88;5038319;28;20234;-57
2023/06/09 00:15:36;;;;;;;4.88;4.47;;;;;;;15.77;100.00;96203.22;5041482;28;20203;-58
2023/06/09 00:18:03;;;;;;;5.72;5.22;;;;;;;15.79;100.00;96199.38;5042611;28;20578;-57
2023/06/09 00:20:33;;;;;;;5.27;4.90;;;;;;;15.71;100.00;96196.81;5043494;28;20204;-57
2023/06/09 00:23:00;;;;;;;5.60;5.00;;;;;;;15.67;100.00;96198.19;5042806;28;21292;-57
2023/06/09 00:25:27;;;;;;;5.53;5.13;;;;;;;15.62;100.00;96192.59;5042248;28;20235;-56
2023/06/09 00:27:54;;;;;;;4.78;4.47;;;;;;;15.60;100.00;96191.09;5042463;28;20640;-57
2023/06/09 00:30:21;;;;;;;5.78;5.38;;;;;;;15.61;100.00;96187.44;5041269;28;20276;-57
2023/06/09 00:32:48;;;;;;;5.30;4.90;;;;;;;15.65;100.00;96189.56;5042646;28;20574;-57
2023/06/09 00:35:15;;;;;;;5.67;5.10;;;;;;;15.62;100.00;96191.75;5042771;28;20208;-58
2023/06/09 00:37:46;;;;;;;5.50;5.03;;;;;;;15.58;100.00;96193.97;5041642;28;20269;-56
2023/06/09 00:40:14;;;;;;;5.28;4.88;;;;;;;15.63;100.00;96199.56;5041814;28;20203;-57
2023/06/09 00:42:40;;;;;;;5.40;5.00;;;;;;;15.56;100.00;96189.81;5042204;28;20219;-57
2023/06/09 00:45:08;;;;;;;5.90;5.30;;;;;;;15.57;100.00;96191.47;5041499;28;20286;-58
2023/06/09 00:47:34;;;;;;;5.40;5.00;;;;;;;15.57;100.00;96188.81;5042940;28;20222;-56
2023/06/09 00:50:01;;;;;;;6.07;4.87;;;;;;;15.58;100.00;96191.31;5039799;28;20219;-57
2023/06/09 00:52:28;;;;;;;5.78;5.30;;;;;;;15.55;100.00;96182.84;5041949;28;20210;-58
2023/06/09 00:54:55;;;;;;;5.53;5.10;;;;;;;15.32;100.00;96182.91;5042549;28;20593;-58
2023/06/09 00:57:24;;;;;;;5.27;4.87;;;;;;;15.34;100.00;96187.03;5041721;28;20210;-56
2023/06/09 00:59:50;;;;;;;5.27;4.87;;;;;;;15.28;100.00;96184.28;5041623;28;20207;-57
2023/06/09 01:02:17;;;;;;;5.10;4.80;;;;;;;15.36;100.00;96181.53;5041155;28;20231;-57
2023/06/09 01:04:49;;;;;;;5.15;4.75;;;;;;;15.32;100.00;96183.75;5041998;28;20195;-57
2023/06/09 01:07:24;;;;;;;5.40;5.00;;;;;;;15.33;100.00;96185.41;5040922;28;20191;-57
2023/06/09 01:09:55;;;;;;;5.17;4.77;;;;;;;15.29;100.00;96193.94;5040235;28;20250;-58
2023/06/09 01:12:33;;;;;;;5.07;4.73;;;;;;;15.31;100.00;96197.22;5038945;28;20224;-56
2023/06/09 01:15:05;;;;;;;5.43;4.90;;;;;;;15.28;100.00;96186.94;5040949;28;20222;-58
2023/06/09 01:17:36;;;;;;;5.13;4.72;;;;;;;15.26;100.00;96195.13;5037521;28;20208;-57
2023/06/09 01:20:05;;;;;;;5.30;4.90;;;;;;;15.28;100.00;96200.25;5035152;28;20223;-57
2023/06/09 01:22:38;;;;;;;5.10;4.70;;;;;;;15.19;100.00;96183.56;5030606;28;20238;-57
2023/06/09 01:25:35;;;;;;;5.03;4.50;;;;;;;15.15;100.00;96192.09;5032109;28;20203;-57
2023/06/09 01:28:05;;;;;;;4.60;4.20;;;;;;;15.23;100.00;96186.69;5030826;28;20210;-58
2023/06/09 01:30:33;;;;;;;5.20;4.70;;;;;;;15.22;100.00;96187.69;5030825;28;20217;-56
2023/06/09 01:33:01;;;;;;;5.33;4.83;;;;;;;15.14;100.00;96185.94;5031735;28;20196;-58
2023/06/09 01:35:27;;;;;;;5.50;5.07;;;;;;;15.10;100.00;96189.97;5042731;28;20203;-57
2023/06/09 01:37:55;;;;;;;5.13;4.77;;;;;;;15.05;100.00;96188.88;5042972;28;20211;-58
2023/06/09 01:40:24;;;;;;;5.20;4.80;;;;;;;15.06;100.00;96190.50;5043814;28;20196;-57
2023/06/09 01:42:53;;;;;;;5.20;4.80;;;;;;;15.03;100.00;96193.53;5032349;28;20224;-57
2023/06/09 01:45:19;;;;;;;4.97;4.63;;;;;;;15.09;100.00;96185.63;5030795;28;20792;-55
2023/06/09 01:47:46;;;;;;;4.93;4.63;;;;;;;15.01;100.00;96179.56;5031546;28;20207;-59
2023/06/09 01:50:17;;;;;;;5.40;5.00;;;;;;;15.00;100.00;96178.75;5030929;28;20211;-57
2023/06/09 01:52:50;;;;;;;5.17;4.77;;;;;;;14.99;100.00;96173.59;5031888;28;20231;-57
2023/06/09 01:55:20;;;;;;;5.20;4.80;;;;;;;14.92;100.00;96171.66;5031278;28;20531;-57
2023/06/09 01:57:52;;;;;;;5.37;4.93;;;;;;;14.87;100.00;96174.06;5031425;28;20560;-58
2023/06/09 02:00:20;;;;;;;5.53;5.10;;;;;;;14.95;100.00;96181.94;5020776;28;20660;-58
2023/06/09 02:02:47;;;;;;;5.10;4.70;;;;;;;14.96;100.00;96182.78;5031187;28;20231;-56
2023/06/09 02:05:15;;;;;;;5.13;4.73;;;;;;;15.02;100.00;96184.69;5030618;28;20541;-56
2023/06/09 02:07:44;;;;;;;5.33;4.97;;;;;;;15.00;100.00;96184.06;5031013;28;20199;-57
2023/06/09 02:10:11;;;;;;;5.20;4.80;;;;;;;14.93;100.00;96180.47;5031190;28;20226;-56
2023/06/09 02:12:38;;;;;;;4.87;4.47;;;;;;;14.88;100.00;96183.66;5030393;28;20250;-56
2023/06/09 02:15:07;;;;;;;5.30;4.80;;;;;;;14.88;100.00;96190.81;5030881;28;20262;-57
2023/06/09 02:17:36;;;;;;;5.87;5.33;;;;;;;14.83;100.00;96183.41;5031113;28;20208;-57
2023/06/09 02:20:05;;;;;;;5.30;4.90;;;;;;;14.74;100.00;96171.16;5037525;28;20211;-58
2023/06/09 02:22:32;;;;;;;5.55;5.15;;;;;;;14.76;100.00;96178.97;5054383;28;20222;-57
2023/06/09 02:24:59;;;;;;;5.73;4.87;;;;;;;14.75;100.00;96178.16;5048992;28;20213;-59
2023/06/09 02:27:26;;;;;;;5.47;5.07;;;;;;;14.73;100.00;96172.19;5041329;28;20643;-56
2023/06/09 02:29:54;;;;;;;5.53;5.13;;;;;;;14.72;100.00;96175.00;5030603;28;20204;-58
2023/06/09 02:32:22;;;;;;;6.17;5.30;;;;;;;14.77;100.00;96170.78;5031450;28;20204;-58
2023/06/09 02:34:48;;;;;;;6.10;5.27;;;;;;;14.80;100.00;96170.47;5030794;28;20655;-58
2023/06/09 02:37:15;;;;;;;5.90;5.40;;;;;;;14.76;100.00;96163.00;5031312;28;20212;-56
2023/06/09 02:39:42;;;;;;;5.70;5.30;;;;;;;14.70;100.00;96155.75;5033001;28;20242;-57
2023/06/09 02:42:09;;;;;;;5.53;5.13;;;;;;;14.71;100.00;96168.88;5034316;28;20231;-56
2023/06/09 02:44:37;;;;;;;5.60;5.10;;;;;;;14.74;100.00;96163.19;5034427;28;20218;-58
2023/06/09 02:47:03;;;;;;;6.33;5.67;;;;;;;14.76;100.00;96161.19;5034635;28;20211;-57
2023/06/09 02:49:33;;;;;;;5.80;5.30;;;;;;;14.62;100.00;96156.66;5034676;28;20199;-57
2023/06/09 02:51:59;;;;;;;5.80;5.30;;;;;;;14.66;100.00;96155.28;5034450;28;20549;-57
2023/06/09 02:54:27;;;;;;;6.07;5.57;;;;;;;14.64;100.00;96154.63;5034122;28;20211;-56
2023/06/09 02:56:56;;;;;;;5.80;5.30;;;;;;;14.69;100.00;96162.06;5034459;28;21396;-57
2023/06/09 02:59:23;;;;;;;6.67;5.97;;;;;;;14.65;100.00;96158.94;5036821;28;20234;-56
2023/06/09 03:01:50;;;;;;;5.77;5.37;;;;;;;14.67;100.00;96167.56;5040653;28;20211;-57
2023/06/09 03:04:18;;;;;;;5.70;5.20;;;;;;;14.62;100.00;96175.28;5037164;28;20238;-57
2023/06/09 03:06:49;;;;;;;5.53;5.10;;;;;;;14.57;100.00;96172.31;5034749;28;20224;-56
2023/06/09 03:09:16;;;;;;;5.50;5.10;;;;;;;14.66;100.00;96179.25;5033790;28;20568;-58
2023/06/09 03:11:42;;;;;;;5.60;5.20;;;;;;;14.58;100.00;96168.66;5034433;28;20631;-58
2023/06/09 03:14:08;;;;;;;4.97;4.67;;;;;;;14.53;100.00;96176.34;5043046;28;20243;-57
2023/06/09 03:16:35;;;;;;;5.97;5.50;;;;;;;14.59;100.00;96180.97;5045363;28;20531;-57
2023/06/09 03:19:03;;;;;;;5.27;4.87;;;;;;;14.49;100.00;96185.66;5047084;28;20207;-58
2023/06/09 03:21:30;;;;;;;5.50;5.10;;;;;;;14.51;100.00;96183.69;5049960;28;20210;-57
2023/06/09 03:23:57;;;;;;;5.47;5.07;;;;;;;14.50;100.00;96186.50;5045283;28;20559;-56
2023/06/09 03:26:26;;;;;;;6.07;5.37;;;;;;;14.51;100.00;96183.69;5044203;28;21228;-56
2023/06/09 03:28:52;;;;;;;5.80;5.40;;;;;;;14.54;100.00;96177.16;5043932;28;20215;-56
2023/06/09 03:31:24;;;;;;;5.90;5.50;;;;;;;14.56;100.00;96185.81;5044182;28;20219;-57
2023/06/09 03:33:51;;;;;;;5.97;5.53;;;;;;;14.60;100.00;96177.28;5045117;28;20547;-57
2023/06/09 03:36:17;;;;;;;6.13;5.70;;;;;;;14.49;100.00;96180.34;5045116;28;20208;-56
2023/06/09 03:38:45;;;;;;;5.73;5.30;;;;;;;14.46;100.00;96180.72;5043962;28;20211;-57
2023/06/09 03:41:15;;;;;;;6.73;6.13;;;;;;;14.45;100.00;96185.19;5045064;28;20208;-59
2023/06/09 03:43:41;;;;;;;5.80;5.30;;;;;;;14.43;100.00;96178.41;5047728;28;20227;-57
2023/06/09 03:46:08;;;;;;;6.10;5.60;;;;;;;14.39;100.00;96191.25;5049158;28;20214;-55
2023/06/09 03:48:34;;;;;;;6.70;6.20;;;;;;;14.48;100.00;96183.22;5045975;28;20281;-58
2023/06/09 03:51:01;;;;;;;6.07;5.57;;;;;;;14.47;100.00;96186.88;5045276;28;20207;-57
2023/06/09 03:53:27;;;;;;;5.93;5.53;;;;;;;14.53;100.00;96191.47;5044323;28;20191;-57
2023/06/09 03:55:53;;;;;;;6.23;5.70;;;;;;;14.54;100.00;96187.81;5042816;28;20222;-58
2023/06/09 03:58:22;;;;;;;5.80;5.40;;;;;;;14.60;100.00;96187.91;5042804;28;20214;-56
2023/06/09 04:00:49;;;;;;;5.97;5.47;;;;;;;14.58;100.00;96189.94;5041605;28;20611;-58
2023/06/09 04:03:15;;;;;;;6.07;5.57;;;;;;;14.62;100.00;96193.06;5042274;28;20563;-57
2023/06/09 04:05:42;;;;;;;5.43;5.03;;;;;;;14.66;100.00;96191.72;5042595;28;20218;-56
2023/06/09 04:08:09;;;;;;;6.17;5.57;;;;;;;14.68;100.00;96195.84;5042687;28;20208;-58
2023/06/09 04:10:35;;;;;;;5.80;5.30;;;;;;;14.62;100.00;96195.72;5042714;28;20632;-56
2023/06/09 04:13:02;;;;;;;5.73;5.23;;;;;;;14.69;100.00;96191.34;5036635;28;20239;-58
2023/06/09 04:15:31;;;;;;;5.63;5.23;;;;;;;14.73;100.00;96182.00;5032931;28;20207;-57
2023/06/09 04:17:57;;;;;;;6.50;6.00;;;;;;;14.74;100.00;96195.13;5031268;28;20196;-57
2023/06/09 04:20:25;;;;;;;5.88;5.38;;;;;;;14.75;100.00;96186.13;5032229;28;20508;-56
2023/06/09 04:22:53;;;;;;;6.07;5.57;;;;;;;14.81;100.00;96185.41;5033278;28;20315;-56
2023/06/09 04:25:25;;;;;;;5.93;5.50;;;;;;;14.87;100.00;96194.53;5032723;28;20211;-57
2023/06/09 04:27:52;;;;;;;6.70;5.77;;;;;;;14.88;100.00;96186.34;5032425;28;20195;-57
2023/06/09 04:30:25;;;;;;;6.17;5.67;;;;;;;14.95;100.00;96191.75;5031451;28;20208;-57
2023/06/09 04:32:54;;;;;;;5.93;5.50;;;;;;;15.12;100.00;96197.78;5032171;28;20569;-56
2023/06/09 04:35:21;;;;;;;6.18;5.78;;;;;;;15.15;100.00;96186.75;5032217;28;20211;-57
2023/06/09 04:37:49;;;;;;;6.73;6.20;;;;;;;15.13;100.00;96188.75;5048070;28;20196;-57
2023/06/09 04:40:21;;;;;;;6.10;5.63;;;;;;;15.29;100.00;96192.09;5044324;28;20227;-57
2023/06/09 04:42:55;;;;;;;6.22;5.63;;;;;;;15.38;100.00;96200.81;5040302;28;20215;-57
2023/06/09 04:45:27;;;;;;;6.10;5.57;;;;;;;15.63;100.00;96204.06;5040001;28;20200;-57
2023/06/09 04:47:59;;;;;;;6.70;6.15;;;;;;;15.75;100.00;96202.59;5032041;28;21427;-58
2023/06/09 04:50:29;;;;;;;8.85;8.15;;;;;;;15.90;100.00;96198.91;5030871;28;20561;-58
2023/06/09 04:52:57;;;;;;;9.50;8.70;;;;;;;16.03;100.00;96197.38;5032241;28;20703;-58
2023/06/09 04:55:25;;;;;;;10.07;9.15;;;;;;;16.14;100.00;96200.41;5030968;28;20356;-57
2023/06/09 04:57:53;;;;;;;9.80;9.00;;;;;;;16.25;100.00;96196.41;5031335;28;20212;-59
2023/06/09 05:00:21;;;;;;;8.85;8.15;;;;;;;16.35;100.00;96204.94;5031412;28;20231;-57
2023/06/09 05:02:47;;;;;;;8.83;8.13;;;;;;;16.46;100.00;96206.28;5030802;28;20569;-58
2023/06/09 05:05:15;;;;;;;8.95;8.25;;;;;;;16.56;100.00;96202.31;5031289;28;20208;-56
2023/06/09 05:07:42;;;;;;;10.48;9.57;;;;;;;16.64;100.00;96202.19;5031518;28;20215;-57
2023/06/09 05:10:10;;;;;;;10.40;9.52;;;;;;;16.67;100.00;96206.31;5031713;28;20208;-57
2023/06/09 05:12:39;;;;;;;8.80;8.10;;;;;;;16.90;100.00;96205.06;5034620;28;20236;-58
2023/06/09 05:15:06;;;;;;;8.73;8.07;;;;;;;17.06;100.00;96203.97;5040267;28;20637;-56
2023/06/09 05:17:34;;;;;;;10.50;9.60;;;;;;;17.08;100.00;96203.78;5041837;28;20223;-57
2023/06/09 05:20:00;;;;;;;10.52;9.63;;;;;;;17.29;100.00;96201.03;5042254;28;20211;-57
2023/06/09 05:22:28;;;;;;;10.18;8.60;;;;;;;17.46;100.00;96204.25;5042735;28;20650;-59
2023/06/09 05:24:56;;;;;;;9.70;8.82;;;;;;;17.66;100.00;96214.06;5041750;28;20227;-63
2023/06/09 05:27:22;;;;;;;9.40;8.60;;;;;;;17.86;100.00;96206.16;5042467;28;20203;-57
2023/06/09 05:29:49;;;;;;;9.75;8.75;;;;;;;18.04;100.00;96213.63;5043425;28;20211;-57
2023/06/09 05:32:15;;;;;;;10.63;8.98;;;;;;;18.23;100.00;96210.22;5041090;28;20567;-56
2023/06/09 05:34:42;;;;;;;10.43;9.43;;;;;;;18.38;100.00;96213.56;5040370;28;20215;-59
2023/06/09 05:37:09;;;;;;;9.35;8.55;;;;;;;18.52;100.00;96209.09;5038980;28;20231;-59
2023/06/09 05:39:37;;;;;;;10.50;9.40;;;;;;;18.59;100.00;96207.25;5040859;28;20246;-57
2023/06/09 05:42:03;;;;;;;9.60;8.88;;;;;;;18.76;100.00;96206.66;5040644;28;20198;-58
2023/06/09 05:44:30;;;;;;;10.00;9.13;;;;;;;18.93;100.00;96200.88;5043864;28;20238;-60
2023/06/09 05:46:56;;;;;;;9.75;8.93;;;;;;;19.17;99.51;96203.78;5043255;28;20327;-58
2023/06/09 05:49:23;;;;;;;10.07;8.85;;;;;;;19.26;98.15;96204.41;5042741;28;20199;-57
2023/06/09 05:51:50;;;;;;;9.13;8.40;;;;;;;19.36;98.52;96204.81;5041081;28;20219;-57
2023/06/09 05:54:17;;;;;;;8.20;7.50;;;;;;;19.72;95.52;96207.03;5040539;28;20266;-57
2023/06/09 05:56:45;;;;;;;8.35;7.65;;;;;;;19.80;92.59;96202.25;5040629;28;20196;-57
2023/06/09 05:59:11;;;;;;;7.40;6.70;;;;;;;20.01;91.95;96205.72;5041083;28;20262;-58
2023/06/09 06:01:38;;;;;;;8.85;7.95;;;;;;;20.25;92.83;96207.66;5040146;28;20207;-57
2023/06/09 06:04:04;;;;;;;8.45;7.60;;;;;;;20.44;89.28;96201.38;5047614;28;20234;-57
2023/06/09 06:06:31;;;;;;;9.85;8.00;;;;;;;20.73;88.20;96206.19;5047692;28;20214;-57
2023/06/09 06:08:58;;;;;;;7.07;6.55;;;;;;;20.81;87.22;96205.94;5049891;28;20207;-57
2023/06/09 06:11:25;;;;;;;10.07;8.23;;;;;;;20.83;85.21;96206.53;5042200;28;20521;-56
2023/06/09 06:13:55;;;;;;;8.20;7.50;;;;;;;21.07;85.14;96206.78;5042101;28;20250;-56
2023/06/09 06:16:22;;;;;;;7.18;6.45;;;;;;;21.46;84.36;96205.66;5044136;28;20556;-57
2023/06/09 06:18:48;;;;;;;7.15;6.25;;;;;;;21.74;82.87;96209.50;5044253;28;20211;-57
2023/06/09 06:21:15;;;;;;;7.10;6.47;;;;;;;21.89;80.95;96206.44;5044379;28;20195;-57
2023/06/09 06:23:41;;;;;;;7.38;6.68;;;;;;;22.12;79.84;96205.78;5044127;28;20218;-58
2023/06/09 06:26:08;;;;;;;10.93;7.15;;;;;;;22.06;77.86;96207.53;5044322;28;20208;-57
2023/06/09 06:28:34;;;;;;;7.60;6.85;;;;;;;22.32;77.25;96212.56;5044493;28;20207;-58
2023/06/09 06:31:03;;;;;;;7.03;6.53;;;;;;;22.52;74.99;96215.03;5043638;28;20199;-58
2023/06/09 06:33:31;;;;;;;9.27;6.88;;;;;;;22.43;73.21;96210.16;5043792;28;20231;-57
2023/06/09 06:35:58;;;;;;;7.47;6.78;;;;;;;22.55;72.66;96213.72;5043755;28;20701;-58
2023/06/09 06:38:25;;;;;;;7.28;6.50;;;;;;;22.73;73.45;96211.84;5044173;28;20220;-58
2023/06/09 06:40:51;;;;;;;7.90;7.00;;;;;;;22.78;75.43;96217.34;5045315;28;20214;-58
2023/06/09 06:43:19;;;;;;;6.60;6.07;;;;;;;23.14;75.69;96213.69;5043214;28;20207;-58
2023/06/09 06:45:45;;;;;;;7.72;6.97;;;;;;;22.99;71.54;96213.31;5043741;28;20207;-57
2023/06/09 06:48:13;;;;;;;7.45;6.88;;;;;;;23.31;70.10;96221.97;5044293;28;20207;-58
2023/06/09 06:50:40;;;;;;;7.60;6.88;;;;;;;23.43;70.79;96220.09;5044834;28;20258;-57
2023/06/09 06:53:07;;;;;;;6.43;5.93;;;;;;;23.58;70.05;96222.34;5042877;28;20249;-57
2023/06/09 06:55:35;;;;;;;6.68;6.13;;;;;;;23.67;66.89;96220.94;5055170;28;20215;-59
2023/06/09 06:58:02;;;;;;;7.25;6.28;;;;;;;23.76;68.70;96224.94;5052775;28;20227;-59
2023/06/09 07:00:28;;;;;;;8.65;6.53;;;;;;;23.75;67.79;96224.09;5050814;28;20208;-58
2023/06/09 07:02:55;;;;;;;7.05;6.32;;;;;;;24.01;66.97;96221.97;5028609;28;20526;-59
2023/06/09 07:05:22;;;;;;;8.13;6.47;;;;;;;24.23;67.73;96223.81;5046456;28;20226;-59
2023/06/09 07:07:49;;;;;;;7.78;6.75;;;;;;;24.33;66.83;96223.22;5047155;28;20219;-59
2023/06/09 07:10:16;;;;;;;8.85;7.43;;;;;;;24.34;65.84;96221.34;5047615;28;20536;-60
2023/06/09 07:12:42;;;;;;;7.75;7.10;;;;;;;24.54;65.02;96222.59;5046027;28;20255;-59
2023/06/09 07:15:09;;;;;;;8.25;7.32;;;;;;;24.55;64.71;96224.19;5044953;28;20195;-58
2023/06/09 07:17:37;;;;;;;7.95;7.22;;;;;;;24.61;66.03;96228.66;5044544;28;20663;-59
2023/06/09 07:20:04;;;;;;;7.43;6.72;;;;;;;24.84;64.05;96233.16;5045868;28;20207;-59
2023/06/09 07:22:33;;;;;;;9.25;7.45;;;;;;;25.05;64.23;96226.25;5044034;28;20215;-58
2023/06/09 07:25:00;;;;;;;7.95;7.13;;;;;;;25.17;62.94;96221.59;5042373;28;20228;-58
2023/06/09 07:27:26;;;;;;;8.05;7.45;;;;;;;25.08;61.94;96228.47;5041388;28;20195;-58
2023/06/09 07:29:53;;;;;;;7.15;6.50;;;;;;;25.07;63.24;96222.25;5042696;28;20803;-59
2023/06/09 07:32:20;;;;;;;8.48;7.80;;;;;;;25.16;61.95;96230.78;5041404;28;20214;-58
2023/06/09 07:34:46;;;;;;;9.10;8.20;;;;;;;24.95;61.42;96234.19;5042948;28;20263;-58
2023/06/09 07:37:13;;;;;;;9.55;8.63;;;;;;;25.05;63.67;96229.78;5041216;28;20211;-57
2023/06/09 07:39:41;;;;;;;8.70;7.95;;;;;;;24.92;64.54;96227.38;5041375;28;20680;-58
2023/06/09 07:42:08;;;;;;;8.88;7.63;;;;;;;25.25;63.72;96223.91;5041148;28;20207;-58
2023/06/09 07:44:35;;;;;;;9.20;7.72;;;;;;;25.27;62.20;96222.59;5037750;28;20228;-59
2023/06/09 07:47:02;;;;;;;7.63;7.03;;;;;;;25.30;62.83;96225.84;5039364;28;20210;-59
2023/06/09 07:49:29;;;;;;;7.47;6.82;;;;;;;25.66;62.07;96220.81;5040744;28;20212;-58
2023/06/09 07:51:55;;;;;;;10.52;7.88;;;;;;;25.78;62.21;96222.59;5041049;28;20212;-58
2023/06/09 07:54:24;;;;;;;8.40;7.57;;;;;;;25.86;62.51;96219.47;5041531;28;20214;-58
2023/06/09 07:56:52;;;;;;;8.57;7.63;;;;;;;26.00;59.36;96223.47;5041063;28;20211;-58
2023/06/09 07:59:19;;;;;;;7.43;6.75;;;;;;;26.12;58.84;96224.16;5040387;28;20203;-60
2023/06/09 08:01:46;;;;;;;7.00;6.50;;;;;;;26.03;60.99;96221.09;5039048;28;20203;-60
2023/06/09 08:04:12;;;;;;;7.15;6.63;;;;;;;25.83;58.99;96222.66;5040934;28;20235;-58
2023/06/09 08:06:38;;;;;;;6.90;6.30;;;;;;;26.00;60.02;96220.75;5039933;28;20655;-58
2023/06/09 08:09:05;;;;;;;6.93;6.32;;;;;;;25.99;58.82;96213.69;5040230;28;20211;-57
2023/06/09 08:11:32;;;;;;;8.93;6.82;;;;;;;26.04;58.46;96211.06;5040562;28;20235;-59
2023/06/09 08:14:00;;;;;;;6.95;6.22;;;;;;;25.87;60.24;96205.66;5041422;28;20243;-62
2023/06/09 08:16:26;;;;;;;8.27;6.35;;;;;;;25.99;59.49;96209.09;5042524;28;20208;-58
2023/06/09 08:18:52;;;;;;;7.20;6.50;;;;;;;26.12;59.25;96213.31;5041553;28;20285;-58
2023/06/09 08:21:19;;;;;;;7.10;6.30;;;;;;;25.91;62.37;96206.81;5042917;28;20534;-57
2023/06/09 08:23:45;;;;;;;6.28;5.78;;;;;;;26.25;59.39;96202.16;5041128;28;20223;-58
2023/06/09 08:26:12;;;;;;;6.90;6.22;;;;;;;26.21;58.89;96206.44;5041692;28;20211;-58
2023/06/09 08:28:39;;;;;;;6.72;6.03;;;;;;;26.36;57.37;96200.38;5038920;28;20200;-57
2023/06/09 08:31:08;;;;;;;5.82;5.22;;;;;;;26.57;58.21;96203.06;5038470;28;20257;-57
2023/06/09 08:33:36;;;;;;;6.15;5.70;;;;;;;26.84;57.36;96199.59;5040955;28;20203;-57
2023/06/09 08:36:03;;;;;;;6.63;6.13;;;;;;;26.81;56.31;96194.66;5040597;28;20207;-59
2023/06/09 08:38:31;;;;;;;6.13;5.70;;;;;;;26.99;57.32;96197.03;5040409;28;20207;-59
2023/06/09 08:41:02;;;;;;;5.85;5.35;;;;;;;27.18;56.89;96187.41;5040216;28;20655;-58
2023/06/09 08:43:30;;;;;;;6.88;6.05;;;;;;;27.24;56.14;96186.41;5040792;28;20261;-58
2023/06/09 08:46:00;;;;;;;5.80;5.40;;;;;;;27.17;55.02;96183.09;5038508;28;20255;-57
2023/06/09 08:48:29;;;;;;;8.25;5.53;;;;;;;27.48;56.78;96181.47;5038241;28;20235;-59
2023/06/09 08:50:56;;;;;;;5.85;5.25;;;;;;;27.64;54.55;96172.31;5040360;28;20228;-58
2023/06/09 08:53:22;;;;;;;5.68;5.13;;;;;;;27.74;53.49;96177.81;5041453;28;20211;-58
2023/06/09 08:55:51;;;;;;;5.95;5.43;;;;;;;27.50;51.78;96171.16;5040476;28;20295;-59
2023/06/09 08:58:18;;;;;;;6.18;5.20;;;;;;;27.39;53.37;96172.94;5038563;28;20218;-57
2023/06/09 09:00:45;;;;;;;5.90;5.50;;;;;;;27.15;52.97;96167.06;5038321;28;20199;-58
2023/06/09 09:03:11;;;;;;;5.47;5.05;;;;;;;27.43;53.17;96167.81;5040432;28;20294;-59
2023/06/09 09:05:39;;;;;;;6.72;5.43;;;;;;;27.66;51.47;96171.00;5037701;28;20600;-58
2023/06/09 09:08:05;;;;;;;5.38;4.90;;;;;;;27.66;51.61;96160.13;5039598;28;20643;-58
2023/06/09 09:10:32;;;;;;;9.05;5.30;;;;;;;27.78;50.94;96168.06;5037730;28;20203;-58
2023/06/09 09:13:05;;;;;;;5.60;5.20;;;;;;;27.83;51.97;96161.84;5036428;28;20281;-59
2023/06/09 09:15:32;;;;;;;5.32;4.82;;;;;;;27.84;51.52;96158.88;5032442;28;20192;-59
2023/06/09 09:17:59;;;;;;;6.43;5.18;;;;;;;27.69;51.15;96156.91;5032319;28;20215;-58
2023/06/09 09:20:32;;;;;;;5.78;5.20;;;;;;;27.49;51.08;96154.03;5030064;28;20204;-59
2023/06/09 09:23:00;;;;;;;5.03;4.55;;;;;;;27.26;53.08;96154.38;5031294;28;20239;-58
2023/06/09 09:25:28;;;;;;;5.00;4.55;;;;;;;27.74;51.69;96152.56;5035847;28;20219;-58
2023/06/09 09:28:02;;;;;;;5.35;4.85;;;;;;;27.99;50.68;96144.53;5045271;28;20183;-59
2023/06/09 09:30:47;;;;;;;5.75;4.82;;;;;;;27.93;51.00;96154.56;5044565;28;20184;-59
2023/06/09 09:33:15;;;;;;;5.20;4.70;;;;;;;27.93;50.38;96151.84;5042673;28;20207;-59
2023/06/09 09:35:48;;;;;;;5.47;5.00;;;;;;;27.91;49.66;96143.16;5035649;28;20489;-58
2023/06/09 09:38:20;;;;;;;5.82;5.18;;;;;;;27.92;49.71;96143.94;5029996;28;20226;-60
2023/06/09 09:40:47;;;;;;;6.07;5.05;;;;;;;27.89;49.16;96139.06;5030812;28;20207;-57
2023/06/09 09:43:14;;;;;;;7.35;5.35;;;;;;;27.83;49.08;96138.22;5029392;28;20207;-58
2023/06/09 09:45:43;;;;;;;8.00;5.35;;;;;;;27.72;50.75;96141.13;5029769;28;20227;-58
2023/06/09 09:48:11;;;;;;;6.78;5.25;;;;;;;28.21;51.31;96128.06;5028683;28;20625;-58
2023/06/09 09:50:38;;;;;;;10.77;5.28;;;;;;;28.29;50.56;96131.13;5030248;28;20208;-60
2023/06/09 09:53:05;;;;;;;4.97;4.45;;;;;;;28.14;47.75;96117.44;5030429;28;20291;-60
2023/06/09 09:55:35;;;;;;;4.63;4.32;;;;;;;28.27;47.70;96127.81;5030601;28;20200;-58
2023/06/09 09:58:04;;;;;;;6.57;4.72;;;;;;;28.48;46.79;96118.66;5029796;28;20210;-60
2023/06/09 10:00:32;;;;;;;6.20;4.78;;;;;;;28.14;46.98;96120.16;5029987;28;20208;-57
2023/06/09 10:03:00;;;;;;;5.47;4.97;;;;;;;27.89;47.00;96123.56;5030148;28;20242;-58
2023/06/09 10:05:30;;;;;;;4.97;4.57;;;;;;;28.11;47.13;96124.25;5032961;28;20243;-58
2023/06/09 10:07:57;;;;;;;7.25;4.65;;;;;;;28.35;46.97;96116.44;5032324;28;20203;-61
2023/06/09 10:10:24;;;;;;;4.85;4.55;;;;;;;28.34;47.28;96101.19;5029898;28;20207;-58
2023/06/09 10:12:52;;;;;;;4.78;4.47;;;;;;;28.54;48.20;96114.88;5033671;28;20309;-58
2023/06/09 10:15:20;;;;;;;4.82;4.43;;;;;;;28.84;46.31;96116.03;5038115;28;20195;-58
2023/06/09 10:17:49;;;;;;;5.03;4.72;;;;;;;28.94;46.50;96111.41;5050448;28;20215;-59
2023/06/09 10:20:15;;;;;;;5.20;4.80;;;;;;;28.40;45.42;96110.19;5049958;28;20203;-58
2023/06/09 10:22:42;;;;;;;5.03;4.57;;;;;;;28.87;45.90;96104.59;5040259;28;20206;-58
2023/06/09 10:25:09;;;;;;;5.50;4.97;;;;;;;28.84;44.79;96107.88;5039901;28;20237;-58
2023/06/09 10:27:36;;;;;;;5.65;4.80;;;;;;;29.08;44.39;96106.25;5042554;28;20663;-57
2023/06/09 10:30:05;;;;;;;5.30;4.80;;;;;;;28.42;45.36;96100.69;5045549;28;20200;-58
2023/06/09 10:32:33;;;;;;;5.03;4.63;;;;;;;28.94;46.72;96111.41;5042720;28;20211;-57
2023/06/09 10:35:00;;;;;;;4.22;3.92;;;;;;;29.11;44.63;96100.25;5040278;28;20203;-58
2023/06/09 10:37:29;;;;;;;4.22;3.92;;;;;;;29.22;42.41;96101.88;5039575;28;20219;-58
2023/06/09 10:39:59;;;;;;;4.28;3.97;;;;;;;29.26;42.43;96103.00;5040268;28;20226;-59
2023/06/09 10:42:34;;;;;;;4.47;4.18;;;;;;;29.36;43.69;96111.16;5038389;28;20204;-57
2023/06/09 10:45:06;;;;;;;4.82;3.90;;;;;;;28.87;39.20;96101.88;5038720;28;20223;-58
2023/06/09 10:47:44;;;;;;;3.50;3.30;;;;;;;29.12;40.35;96101.88;5037781;28;20269;-56
2023/06/09 10:50:27;;;;;;;3.63;3.42;;;;;;;29.34;39.08;96099.69;5037729;28;20204;-57
2023/06/09 10:52:55;;;;;;;4.22;3.70;;;;;;;29.18;38.55;96098.06;5037691;28;20659;-57
2023/06/09 10:55:22;;;;;;;4.07;3.80;;;;;;;29.25;38.44;96090.44;5037223;28;20303;-58
2023/06/09 10:57:50;;;;;;;4.30;4.00;;;;;;;28.52;38.93;96089.81;5038523;28;20211;-55
2023/06/09 11:00:19;;;;;;;4.30;3.97;;;;;;;28.66;40.09;96082.75;5038223;28;20278;-57
2023/06/09 11:02:50;;;;;;;3.92;3.63;;;;;;;28.97;39.40;96082.81;5043870;28;20199;-57
2023/06/09 11:05:18;;;;;;;3.97;3.67;;;;;;;28.94;39.80;96077.94;5043135;28;20231;-57
2023/06/09 11:07:47;;;;;;;4.22;3.92;;;;;;;29.49;39.27;96088.78;5046001;28;20210;-58
2023/06/09 11:10:27;;;;;;;3.67;3.38;;;;;;;29.56;38.17;96075.69;5046058;28;20211;-59
2023/06/09 11:12:55;;;;;;;4.20;3.90;;;;;;;28.39;39.13;96076.75;5041114;28;20542;-58
2023/06/09 11:15:24;;;;;;;3.80;3.60;;;;;;;28.98;38.38;96073.59;5035997;28;20200;-59
2023/06/09 11:17:51;;;;;;;3.72;3.42;;;;;;;29.23;39.56;96070.03;5034378;28;20204;-58
2023/06/09 11:20:20;;;;;;;3.50;3.30;;;;;;;29.01;37.39;96078.47;5037428;28;20212;-59
2023/06/09 11:23:04;;;;;;;3.90;3.60;;;;;;;29.14;36.47;96083.34;5047550;28;20200;-58
2023/06/09 11:25:41;;;;;;;4.32;3.80;;;;;;;29.33;35.89;96070.03;5044366;28;20224;-58
2023/06/09 11:28:18;;;;;;;3.78;3.35;;;;;;;29.24;36.83;96069.72;5035514;28;20215;-57
2023/06/09 11:31:01;;;;;;;3.83;3.50;;;;;;;28.93;36.50;96065.41;5033071;28;20273;-58
2023/06/09 11:33:43;;;;;;;3.75;3.45;;;;;;;29.09;36.48;96056.94;5033240;28;20207;-58